createdAt,value
2023-12-13T00:02:00.708Z,10.06
2023-12-13T00:04:28.527Z,10.13
2023-12-13T00:06:55.992Z,10.03
2023-12-13T00:09:23.416Z,10.11
2023-12-13T00:11:51.127Z,10.12
2023-12-13T00:14:18.767Z,10.19
2023-12-13T00:16:46.185Z,10.19
2023-12-13T00:19:13.976Z,10.22
2023-12-13T00:21:41.685Z,10.19
2023-12-13T00:24:10.138Z,10.10
2023-12-13T00:26:37.887Z,10.06
2023-12-13T00:29:06.200Z,10.18
2023-12-13T00:31:33.771Z,9.98
2023-12-13T00:34:01.527Z,10.04
2023-12-13T00:36:28.994Z,10.12
2023-12-13T00:38:56.477Z,10.09
2023-12-13T00:41:25.307Z,9.76
2023-12-13T00:43:52.736Z,9.63
2023-12-13T00:46:23.991Z,9.73
2023-12-13T00:48:51.807Z,9.67
2023-12-13T00:51:20.473Z,9.96
2023-12-13T00:53:48.278Z,10.02
2023-12-13T00:56:16.612Z,9.95
2023-12-13T00:58:44.383Z,9.91
2023-12-13T01:01:12.047Z,9.93
2023-12-13T01:03:39.887Z,10.01
2023-12-13T01:06:10.523Z,10.02
2023-12-13T01:08:40.949Z,9.94
2023-12-13T01:11:11.839Z,9.92
2023-12-13T01:13:39.749Z,9.94
2023-12-13T01:16:07.513Z,10.04
2023-12-13T01:18:36.579Z,10.02
2023-12-13T01:21:04.265Z,10.12
2023-12-13T01:23:31.639Z,10.08
2023-12-13T01:25:59.294Z,10.12
2023-12-13T01:28:26.728Z,10.05
2023-12-13T01:30:54.364Z,10.00
2023-12-13T01:33:22.348Z,9.92
2023-12-13T01:35:49.792Z,10.05
2023-12-13T01:38:17.201Z,9.98
2023-12-13T01:41:10.625Z,10.15
2023-12-13T01:43:39.267Z,10.20
2023-12-13T01:46:07.235Z,10.15
2023-12-13T01:48:34.926Z,10.12
2023-12-13T01:51:02.567Z,10.01
2023-12-13T01:53:30.880Z,10.06
2023-12-13T01:55:58.416Z,10.12
2023-12-13T01:58:26.118Z,10.16
2023-12-13T02:00:53.939Z,10.06
2023-12-13T02:03:22.836Z,10.11
2023-12-13T02:05:53.456Z,10.13
2023-12-13T02:08:21.503Z,10.12
2023-12-13T02:10:49.403Z,10.12
2023-12-13T02:13:17.426Z,10.08
2023-12-13T02:15:46.265Z,10.10
2023-12-13T02:18:16.050Z,10.13
2023-12-13T02:20:46.678Z,10.17
2023-12-13T02:23:14.360Z,10.13
2023-12-13T02:25:46.354Z,10.22
2023-12-13T02:28:14.356Z,10.22
2023-12-13T02:30:42.746Z,9.96
2023-12-13T02:33:10.302Z,9.85
2023-12-13T02:35:38.184Z,9.93
2023-12-13T02:38:05.608Z,10.01
2023-12-13T02:40:33.407Z,9.99
2023-12-13T02:43:01.126Z,9.92
2023-12-13T02:45:28.562Z,10.06
2023-12-13T02:47:57.566Z,10.07
2023-12-13T02:50:25.405Z,10.07
2023-12-13T02:52:52.852Z,9.93
2023-12-13T02:55:20.308Z,9.95
2023-12-13T02:57:47.982Z,10.08
2023-12-13T03:00:15.477Z,10.09
2023-12-13T03:02:42.861Z,10.03
2023-12-13T03:05:10.777Z,9.96
2023-12-13T03:07:41.526Z,9.98
2023-12-13T03:10:09.581Z,9.94
2023-12-13T03:12:37.274Z,9.95
2023-12-13T03:15:04.928Z,9.99
2023-12-13T03:17:32.844Z,10.00
2023-12-13T03:20:00.904Z,10.03
2023-12-13T03:22:28.350Z,10.12
2023-12-13T03:24:57.656Z,9.99
2023-12-13T03:27:25.393Z,10.04
2023-12-13T03:29:53.404Z,9.98
2023-12-13T03:32:20.839Z,10.05
2023-12-13T03:34:48.563Z,10.02
2023-12-13T03:37:16.740Z,9.96
2023-12-13T03:39:44.175Z,9.89
2023-12-13T03:42:11.960Z,9.95
2023-12-13T03:44:39.391Z,9.97
2023-12-13T03:47:06.830Z,9.94
2023-12-13T03:49:34.724Z,9.82
2023-12-13T03:52:02.160Z,9.91
2023-12-13T03:54:29.581Z,9.74
2023-12-13T03:56:57.232Z,9.76
2023-12-13T03:59:24.673Z,9.74
2023-12-13T04:01:52.414Z,9.73
2023-12-13T04:04:20.337Z,9.78
2023-12-13T04:06:47.748Z,9.77
2023-12-13T04:09:15.158Z,9.74
2023-12-13T04:11:42.803Z,9.81
2023-12-13T04:14:10.286Z,9.82
2023-12-13T04:16:37.727Z,9.88
2023-12-13T04:19:05.441Z,9.81
2023-12-13T04:21:32.875Z,9.88
2023-12-13T04:24:01.482Z,9.87
2023-12-13T04:26:29.193Z,9.78
2023-12-13T04:28:56.707Z,9.70
2023-12-13T04:31:24.489Z,9.80
2023-12-13T04:33:52.390Z,9.77
2023-12-13T04:36:19.914Z,9.84
2023-12-13T04:38:47.384Z,9.76
2023-12-13T04:41:15.237Z,9.83
2023-12-13T04:43:42.698Z,9.80
2023-12-13T04:46:10.467Z,9.69
2023-12-13T04:48:38.285Z,9.60
2023-12-13T04:51:06.158Z,9.63
2023-12-13T04:53:33.511Z,9.64
2023-12-13T04:56:01.211Z,9.67
2023-12-13T04:58:28.741Z,9.73
2023-12-13T05:00:56.549Z,9.34
2023-12-13T05:03:24.331Z,9.41
2023-12-13T05:05:51.704Z,9.52
2023-12-13T05:08:19.162Z,9.28
2023-12-13T05:10:46.838Z,9.57
2023-12-13T05:13:14.284Z,9.29
2023-12-13T05:15:41.830Z,9.51
2023-12-13T05:18:10.317Z,9.44
2023-12-13T05:20:38.250Z,9.39
2023-12-13T05:23:05.960Z,9.46
2023-12-13T05:25:34.296Z,9.45
2023-12-13T05:28:01.839Z,9.22
2023-12-13T05:30:29.387Z,9.04
2023-12-13T05:32:57.401Z,9.10
2023-12-13T05:35:25.628Z,9.29
2023-12-13T05:37:53.345Z,9.36
2023-12-13T05:40:21.117Z,9.45
2023-12-13T05:42:48.520Z,9.41
2023-12-13T05:45:15.923Z,9.37
2023-12-13T05:47:43.728Z,9.46
2023-12-13T05:50:11.240Z,9.43
2023-12-13T05:52:40.332Z,9.39
2023-12-13T05:55:08.457Z,9.47
2023-12-13T05:57:36.456Z,9.41
2023-12-13T06:00:07.606Z,9.46
2023-12-13T06:02:37.959Z,9.44
2023-12-13T06:05:21.919Z,9.44
2023-12-13T06:07:49.378Z,9.41
2023-12-13T06:10:16.936Z,9.48
2023-12-13T06:12:44.792Z,9.47
2023-12-13T06:15:12.161Z,9.40
2023-12-13T06:17:39.547Z,9.49
2023-12-13T06:20:07.773Z,9.50
2023-12-13T06:22:35.309Z,9.44
2023-12-13T06:25:03.606Z,9.37
2023-12-13T06:27:31.464Z,9.43
2023-12-13T06:29:58.962Z,9.51
2023-12-13T06:32:26.400Z,9.37
2023-12-13T06:34:54.165Z,9.34
2023-12-13T06:37:21.658Z,9.31
2023-12-13T06:39:51.000Z,9.28
2023-12-13T06:42:20.076Z,9.31
2023-12-13T06:44:47.540Z,9.30
2023-12-13T06:47:14.962Z,9.31
2023-12-13T06:49:42.692Z,9.34
2023-12-13T06:52:10.161Z,9.33
2023-12-13T06:54:37.809Z,9.45
2023-12-13T06:57:05.622Z,9.36
2023-12-13T06:59:33.006Z,9.44
2023-12-13T07:02:01.487Z,9.44
2023-12-13T07:04:29.385Z,9.41
2023-12-13T07:06:56.896Z,9.42
2023-12-13T07:09:24.297Z,9.48
2023-12-13T07:11:51.977Z,9.54
2023-12-13T07:14:19.499Z,9.58
2023-12-13T07:16:47.036Z,9.61
2023-12-13T07:19:14.960Z,9.60
2023-12-13T07:21:42.443Z,9.64
2023-12-13T07:24:10.209Z,9.57
2023-12-13T07:26:37.845Z,9.49
2023-12-13T07:29:05.653Z,9.42
2023-12-13T07:31:38.462Z,9.53
2023-12-13T07:34:06.450Z,9.49
2023-12-13T07:36:33.875Z,9.37
2023-12-13T07:39:01.481Z,9.51
2023-12-13T07:41:29.179Z,9.59
2023-12-13T07:43:56.632Z,9.64
2023-12-13T07:46:24.376Z,9.67
2023-12-13T07:48:52.746Z,9.72
2023-12-13T07:51:20.353Z,9.64
2023-12-13T07:53:47.868Z,9.75
2023-12-13T07:56:21.635Z,9.82
2023-12-13T07:58:58.410Z,9.87
2023-12-13T08:01:27.491Z,9.85
2023-12-13T08:03:55.261Z,9.78
2023-12-13T08:06:22.634Z,9.63
2023-12-13T08:08:50.034Z,9.64
2023-12-13T08:11:18.044Z,9.57
2023-12-13T08:13:45.688Z,9.63
2023-12-13T08:16:13.180Z,9.70
2023-12-13T08:18:41.066Z,9.61
2023-12-13T08:21:09.530Z,9.66
2023-12-13T08:23:36.941Z,9.67
2023-12-13T08:26:04.650Z,9.60
2023-12-13T08:28:32.210Z,9.72
2023-12-13T08:31:08.933Z,9.78
2023-12-13T08:33:45.888Z,9.79
2023-12-13T08:36:14.276Z,9.85
2023-12-13T08:38:42.140Z,9.90
2023-12-13T08:41:12.870Z,9.88
2023-12-13T08:43:40.389Z,9.93
2023-12-13T08:46:08.055Z,10.00
2023-12-13T08:48:35.896Z,9.91
2023-12-13T08:51:06.976Z,9.89
2023-12-13T08:53:34.371Z,9.97
2023-12-13T08:56:04.561Z,9.96
2023-12-13T08:58:32.946Z,10.05
2023-12-13T09:01:00.473Z,10.01
2023-12-13T09:03:28.662Z,10.02
2023-12-13T09:05:56.134Z,9.97
2023-12-13T09:08:24.412Z,9.96
2023-12-13T09:10:52.189Z,10.02
2023-12-13T09:13:19.753Z,10.02
2023-12-13T09:15:47.357Z,10.07
2023-12-13T09:18:15.170Z,10.10
2023-12-13T09:20:43.027Z,10.12
2023-12-13T09:23:28.966Z,10.07
2023-12-13T09:25:57.480Z,10.15
2023-12-13T09:28:25.433Z,10.13
2023-12-13T09:30:53.127Z,10.04
2023-12-13T09:33:20.928Z,10.03
2023-12-13T09:35:48.401Z,10.19
2023-12-13T09:38:15.795Z,10.12
2023-12-13T09:40:43.509Z,10.20
2023-12-13T09:43:13.768Z,10.16
2023-12-13T09:45:42.218Z,10.12
2023-12-13T09:48:11.684Z,10.14
2023-12-13T09:50:40.200Z,10.11
2023-12-13T09:53:07.967Z,10.14
2023-12-13T09:55:37.674Z,10.17
2023-12-13T09:58:05.333Z,10.21
2023-12-13T10:00:32.764Z,10.29
2023-12-13T10:03:00.445Z,10.23
2023-12-13T10:05:29.754Z,10.27
2023-12-13T10:08:02.329Z,10.20
2023-12-13T10:10:32.459Z,10.12
2023-12-13T10:13:02.334Z,10.30
2023-12-13T10:15:34.113Z,10.27
2023-12-13T10:18:02.773Z,10.36
2023-12-13T10:20:31.415Z,10.37
2023-12-13T10:22:58.956Z,10.37
2023-12-13T10:25:26.690Z,10.26
2023-12-13T10:27:54.656Z,10.37
2023-12-13T10:30:22.160Z,10.39
2023-12-13T10:32:49.599Z,10.44
2023-12-13T10:35:17.321Z,10.41
2023-12-13T10:37:47.782Z,10.55
2023-12-13T10:40:19.172Z,10.46
2023-12-13T10:42:52.377Z,10.39
2023-12-13T10:45:21.109Z,10.56
2023-12-13T10:47:50.725Z,10.48
2023-12-13T10:50:19.327Z,10.43
2023-12-13T10:52:47.363Z,10.45
2023-12-13T10:55:16.518Z,10.30
2023-12-13T10:57:44.054Z,10.33
2023-12-13T11:00:13.195Z,10.34
2023-12-13T11:02:50.429Z,10.36
2023-12-13T11:05:18.674Z,10.43
2023-12-13T11:07:47.392Z,10.36
2023-12-13T11:10:15.275Z,10.39
2023-12-13T11:12:50.886Z,10.36
2023-12-13T11:15:20.064Z,10.38
2023-12-13T11:17:51.634Z,10.38
2023-12-13T11:20:22.047Z,10.46
2023-12-13T11:22:50.504Z,10.46
2023-12-13T11:25:18.260Z,10.45
2023-12-13T11:27:52.557Z,10.36
2023-12-13T11:30:22.158Z,10.44
2023-12-13T11:32:50.261Z,10.40
2023-12-13T11:35:21.938Z,10.42
2023-12-13T11:37:54.319Z,10.27
2023-12-13T11:40:22.266Z,10.38
2023-12-13T11:42:52.814Z,10.18
2023-12-13T11:45:21.073Z,10.32
2023-12-13T11:47:51.054Z,10.37
2023-12-13T11:50:21.221Z,10.36
2023-12-13T11:52:49.515Z,10.40
2023-12-13T11:55:20.473Z,10.30
2023-12-13T11:57:54.794Z,10.32
2023-12-13T12:00:22.383Z,10.29
2023-12-13T12:02:54.578Z,10.26
2023-12-13T12:05:24.538Z,10.32
2023-12-13T12:08:03.566Z,10.27
2023-12-13T12:10:34.303Z,10.35
2023-12-13T12:13:02.814Z,10.39
2023-12-13T12:15:32.487Z,10.22
2023-12-13T12:18:00.711Z,10.04
2023-12-13T12:20:29.017Z,10.16
2023-12-13T12:22:59.317Z,9.90
2023-12-13T12:25:29.556Z,9.90
2023-12-13T12:27:57.389Z,9.71
2023-12-13T12:30:26.571Z,9.76
2023-12-13T12:32:54.235Z,9.64
2023-12-13T12:35:21.947Z,9.77
2023-12-13T12:37:49.414Z,9.59
2023-12-13T12:40:17.488Z,9.50
2023-12-13T12:42:46.595Z,9.40
2023-12-13T12:45:14.133Z,9.45
2023-12-13T12:47:41.683Z,9.69
2023-12-13T12:50:10.193Z,9.37
2023-12-13T12:52:39.453Z,9.59
2023-12-13T12:55:07.599Z,9.49
2023-12-13T12:57:35.527Z,9.54
2023-12-13T13:00:05.062Z,9.49
2023-12-13T13:02:32.832Z,9.65
2023-12-13T13:05:00.660Z,9.59
2023-12-13T13:07:28.162Z,9.61
2023-12-13T13:09:55.624Z,9.61
2023-12-13T13:12:23.522Z,9.46
2023-12-13T13:14:50.895Z,9.66
2023-12-13T13:17:18.314Z,9.55
2023-12-13T13:19:46.047Z,9.50
2023-12-13T13:22:19.730Z,9.58
2023-12-13T13:24:52.584Z,9.66
2023-12-13T13:27:27.834Z,9.47
2023-12-13T13:29:57.504Z,9.48
2023-12-13T13:32:25.375Z,9.32
2023-12-13T13:34:52.822Z,9.45
2023-12-13T13:37:20.502Z,9.39
2023-12-13T13:39:49.409Z,9.50
2023-12-13T13:42:17.649Z,9.60
2023-12-13T13:44:45.480Z,9.33
2023-12-13T13:47:13.444Z,9.30
2023-12-13T13:49:41.212Z,9.50
2023-12-13T13:52:09.443Z,9.42
2023-12-13T13:54:36.837Z,9.53
2023-12-13T13:57:07.154Z,9.54
2023-12-13T13:59:34.924Z,9.53
2023-12-13T14:02:02.522Z,9.34
2023-12-13T14:04:30.274Z,9.55
2023-12-13T14:06:57.721Z,9.56
2023-12-13T14:09:25.092Z,9.45
2023-12-13T14:11:54.035Z,9.30
2023-12-13T14:14:22.691Z,9.37
2023-12-13T14:16:50.221Z,9.32
2023-12-13T14:19:18.039Z,9.20
2023-12-13T14:21:46.205Z,9.24
2023-12-13T14:24:13.718Z,9.24
2023-12-13T14:26:41.381Z,9.15
2023-12-13T14:29:08.884Z,9.25
2023-12-13T14:31:36.349Z,8.99
2023-12-13T14:34:04.172Z,9.07
2023-12-13T14:36:31.638Z,9.24
2023-12-13T14:38:59.009Z,9.17
2023-12-13T14:41:27.950Z,9.34
2023-12-13T14:43:55.351Z,9.23
2023-12-13T14:46:22.770Z,9.32
2023-12-13T14:48:51.976Z,9.12
2023-12-13T14:51:19.543Z,9.06
2023-12-13T14:53:47.265Z,9.19
2023-12-13T14:56:14.984Z,9.21
2023-12-13T14:58:42.422Z,9.31
2023-12-13T15:01:09.990Z,9.33
2023-12-13T15:03:37.686Z,9.39
2023-12-13T15:06:05.386Z,9.29
2023-12-13T15:08:32.831Z,9.19
2023-12-13T15:11:00.581Z,9.29
2023-12-13T15:13:29.662Z,9.14
2023-12-13T15:15:57.124Z,8.66
2023-12-13T15:18:25.388Z,8.87
2023-12-13T15:20:52.861Z,8.84
2023-12-13T15:23:21.052Z,8.65
2023-12-13T15:25:48.978Z,8.96
2023-12-13T15:28:16.526Z,8.95
2023-12-13T15:30:44.071Z,8.88
2023-12-13T15:33:12.009Z,8.99
2023-12-13T15:35:39.626Z,9.13
2023-12-13T15:38:07.758Z,9.17
2023-12-13T15:40:35.555Z,9.38
2023-12-13T15:43:02.981Z,9.43
2023-12-13T15:45:30.781Z,9.49
2023-12-13T15:47:58.716Z,9.53
2023-12-13T15:50:26.118Z,9.60
2023-12-13T15:52:53.508Z,9.60
2023-12-13T15:55:24.360Z,9.57
2023-12-13T15:57:52.345Z,9.65
2023-12-13T16:00:22.405Z,9.65
2023-12-13T16:02:50.283Z,9.66
2023-12-13T16:05:18.293Z,9.63
2023-12-13T16:07:46.716Z,9.71
2023-12-13T16:10:20.390Z,9.44
2023-12-13T16:12:49.692Z,9.54
2023-12-13T16:15:17.992Z,9.61
2023-12-13T16:17:46.045Z,9.68
2023-12-13T16:20:13.615Z,9.74
2023-12-13T16:22:41.447Z,9.72
2023-12-13T16:25:09.326Z,9.69
2023-12-13T16:27:36.785Z,9.63
2023-12-13T16:30:05.016Z,9.75
2023-12-13T16:32:32.766Z,9.81
2023-12-13T16:35:00.909Z,9.88
2023-12-13T16:37:32.003Z,9.89
2023-12-13T16:39:59.472Z,9.81
2023-12-13T16:42:26.921Z,9.77
2023-12-13T16:44:54.603Z,9.86
2023-12-13T16:47:22.036Z,9.96
2023-12-13T16:49:49.670Z,9.95
2023-12-13T16:52:17.512Z,10.01
2023-12-13T16:54:49.434Z,10.02
2023-12-13T16:57:17.225Z,9.92
2023-12-13T16:59:44.838Z,9.88
2023-12-13T17:02:13.716Z,9.94
2023-12-13T17:04:41.890Z,9.75
2023-12-13T17:07:09.809Z,9.73
2023-12-13T17:09:37.852Z,9.75
2023-12-13T17:12:06.339Z,9.77
2023-12-13T17:14:33.944Z,9.91
2023-12-13T17:17:01.512Z,9.96
2023-12-13T17:19:29.378Z,9.95
2023-12-13T17:21:56.869Z,9.92
2023-12-13T17:24:24.280Z,9.86
2023-12-13T17:26:53.136Z,9.91
2023-12-13T17:29:26.573Z,10.06
2023-12-13T17:32:02.219Z,9.96
2023-12-13T17:34:29.757Z,9.80
2023-12-13T17:36:57.176Z,9.83
2023-12-13T17:39:24.916Z,9.81
2023-12-13T17:41:52.407Z,9.88
2023-12-13T17:44:22.365Z,9.98
2023-12-13T17:46:52.604Z,9.99
2023-12-13T17:49:20.516Z,10.04
2023-12-13T17:51:48.070Z,10.01
2023-12-13T17:54:16.127Z,10.06
2023-12-13T17:56:43.969Z,10.04
2023-12-13T17:59:12.439Z,10.09
2023-12-13T18:01:40.140Z,10.08
2023-12-13T18:04:07.804Z,10.13
2023-12-13T18:06:35.201Z,10.11
2023-12-13T18:09:02.756Z,10.13
2023-12-13T18:11:30.492Z,10.26
2023-12-13T18:13:58.046Z,10.23
2023-12-13T18:16:25.538Z,10.11
2023-12-13T18:18:53.370Z,10.04
2023-12-13T18:21:20.903Z,10.10
2023-12-13T18:23:48.260Z,10.06
2023-12-13T18:26:16.141Z,10.05
2023-12-13T18:28:43.622Z,10.09
2023-12-13T18:31:11.310Z,10.14
2023-12-13T18:33:39.284Z,10.20
2023-12-13T18:36:06.940Z,10.23
2023-12-13T18:38:34.408Z,10.17
2023-12-13T18:41:02.516Z,10.08
2023-12-13T18:43:30.034Z,10.08
2023-12-13T18:45:57.499Z,10.11
2023-12-13T18:48:25.288Z,10.09
2023-12-13T18:50:52.712Z,10.09
2023-12-13T18:53:20.172Z,10.20
2023-12-13T18:55:47.988Z,10.09
2023-12-13T18:58:15.353Z,9.88
2023-12-13T19:00:44.990Z,10.12
2023-12-13T19:03:14.222Z,10.18
2023-12-13T19:05:41.744Z,10.22
2023-12-13T19:08:09.304Z,10.17
2023-12-13T19:10:37.037Z,9.95
2023-12-13T19:13:04.494Z,9.99
2023-12-13T19:15:31.908Z,10.02
2023-12-13T19:17:59.731Z,10.05
2023-12-13T19:20:27.191Z,10.07
2023-12-13T19:22:54.825Z,10.10
2023-12-13T19:25:22.527Z,10.06
2023-12-13T19:27:49.987Z,10.01
2023-12-13T19:30:17.686Z,10.05
2023-12-13T19:32:45.588Z,9.96
2023-12-13T19:35:13.212Z,9.89
2023-12-13T19:37:41.360Z,10.04
2023-12-13T19:40:10.766Z,10.00
2023-12-13T19:42:38.435Z,9.87
2023-12-13T19:45:07.065Z,9.97
2023-12-13T19:47:35.137Z,9.91
2023-12-13T19:50:02.969Z,9.87
2023-12-13T19:52:30.505Z,9.82
2023-12-13T19:54:58.654Z,9.66
2023-12-13T19:57:26.118Z,9.67
2023-12-13T19:59:53.652Z,9.60
2023-12-13T20:02:22.824Z,9.46
2023-12-13T20:04:50.797Z,9.33
2023-12-13T20:07:19.506Z,9.29
2023-12-13T20:09:46.948Z,9.21
2023-12-13T20:12:14.616Z,9.23
2023-12-13T20:14:42.053Z,9.30
2023-12-13T20:17:09.599Z,9.21
2023-12-13T20:19:37.359Z,9.33
2023-12-13T20:22:04.841Z,9.04
2023-12-13T20:24:32.221Z,9.01
2023-12-13T20:26:59.973Z,8.65
2023-12-13T20:29:27.417Z,8.59
2023-12-13T20:31:54.926Z,8.49
2023-12-13T20:34:22.728Z,8.23
2023-12-13T20:36:50.821Z,8.31
2023-12-13T20:39:18.901Z,8.50
2023-12-13T20:41:46.589Z,8.54
2023-12-13T20:44:14.262Z,8.65
2023-12-13T20:46:41.711Z,8.76
2023-12-13T20:49:10.174Z,8.65
2023-12-13T20:51:37.599Z,8.62
2023-12-13T20:54:05.635Z,8.66
2023-12-13T20:56:33.379Z,8.51
2023-12-13T20:59:01.009Z,8.72
2023-12-13T21:01:28.952Z,8.51
2023-12-13T21:03:56.679Z,8.53
2023-12-13T21:06:24.140Z,8.50
2023-12-13T21:08:52.518Z,8.45
2023-12-13T21:11:20.247Z,8.17
2023-12-13T21:13:47.670Z,8.11
2023-12-13T21:16:15.824Z,8.12
2023-12-13T21:18:43.694Z,7.79
2023-12-13T21:21:11.182Z,7.84
2023-12-13T21:23:38.972Z,7.77
2023-12-13T21:26:06.811Z,7.99
2023-12-13T21:28:34.707Z,7.78
2023-12-13T21:31:02.562Z,7.97
2023-12-13T21:33:30.490Z,8.02
2023-12-13T21:35:58.012Z,7.73
2023-12-13T21:38:25.409Z,8.06
2023-12-13T21:40:53.251Z,8.13
2023-12-13T21:43:20.882Z,8.20
2023-12-13T21:45:48.293Z,8.07
2023-12-13T21:48:16.102Z,8.10
2023-12-13T21:50:45.382Z,8.08
2023-12-13T21:53:13.044Z,8.24
2023-12-13T21:55:40.809Z,8.22
2023-12-13T21:58:08.370Z,8.06
2023-12-13T22:00:36.009Z,8.11
2023-12-13T22:03:03.744Z,7.71
2023-12-13T22:05:31.194Z,7.63
2023-12-13T22:07:58.614Z,7.53
2023-12-13T22:10:27.986Z,7.41
2023-12-13T22:12:55.543Z,7.27
2023-12-13T22:15:22.950Z,7.19
2023-12-13T22:17:54.858Z,7.05
2023-12-13T22:20:22.771Z,7.25
2023-12-13T22:22:50.240Z,6.92
2023-12-13T22:25:18.229Z,6.86
2023-12-13T22:27:45.855Z,6.84
2023-12-13T22:30:13.852Z,6.69
2023-12-13T22:32:42.240Z,7.04
2023-12-13T22:35:12.255Z,7.06
2023-12-13T22:37:40.473Z,7.14
2023-12-13T22:40:08.549Z,6.98
2023-12-13T22:42:36.238Z,7.18
2023-12-13T22:45:04.049Z,7.34
2023-12-13T22:47:31.774Z,7.32
2023-12-13T22:49:59.352Z,7.48
2023-12-13T22:52:27.777Z,7.67
2023-12-13T22:54:55.534Z,7.56
2023-12-13T22:57:22.921Z,7.66
2023-12-13T22:59:50.319Z,7.78
2023-12-13T23:02:17.984Z,7.92
2023-12-13T23:04:46.312Z,7.85
2023-12-13T23:07:13.870Z,7.68
2023-12-13T23:09:41.611Z,7.78
2023-12-13T23:12:09.091Z,7.92
2023-12-13T23:14:36.552Z,7.93
2023-12-13T23:17:04.443Z,8.15
2023-12-13T23:19:32.214Z,8.31
2023-12-13T23:21:59.607Z,8.37
2023-12-13T23:24:27.298Z,8.21
2023-12-13T23:26:54.702Z,8.16
2023-12-13T23:29:22.059Z,8.22
2023-12-13T23:31:49.827Z,8.23
2023-12-13T23:34:17.307Z,8.27
2023-12-13T23:36:44.750Z,8.36
2023-12-13T23:39:12.473Z,8.41
2023-12-13T23:41:40.100Z,8.55
2023-12-13T23:44:07.672Z,8.50
2023-12-13T23:46:35.466Z,8.42
2023-12-13T23:49:03.253Z,8.40
2023-12-13T23:51:30.764Z,8.50
2023-12-13T23:53:58.740Z,8.57
2023-12-13T23:56:26.137Z,8.68
2023-12-13T23:58:53.537Z,8.73
